createdAt,value
2023-02-05T00:00:11.438Z,74.82
2023-02-05T00:03:00.729Z,74.43
2023-02-05T00:05:30.926Z,75.02
2023-02-05T00:07:59.953Z,74.66
2023-02-05T00:10:31.034Z,74.97
2023-02-05T00:12:59.952Z,75.09
2023-02-05T00:28:50.844Z,75.75
2023-02-05T00:31:22.228Z,75.67
2023-02-05T00:33:52.450Z,75.47
2023-02-05T00:36:22.565Z,75.35
2023-02-05T00:38:52.777Z,75.73
2023-02-05T00:41:22.605Z,75.73
2023-02-05T00:43:52.290Z,75.58
2023-02-05T00:46:21.375Z,75.44
2023-02-05T00:48:50.273Z,75.93
2023-02-05T00:51:19.272Z,75.88
2023-02-05T00:53:48.172Z,75.82
2023-02-05T00:56:17.572Z,75.66
2023-02-05T00:58:50.654Z,75.82
2023-02-05T01:01:20.530Z,75.84
2023-02-05T01:03:49.671Z,76.03
2023-02-05T01:06:18.668Z,75.82
2023-02-05T01:08:48.005Z,75.51
2023-02-05T01:11:18.007Z,75.69
2023-02-05T01:13:47.181Z,75.88
2023-02-05T01:16:16.337Z,75.88
2023-02-05T01:18:45.481Z,75.78
2023-02-05T01:21:15.712Z,75.97
2023-02-05T01:23:46.364Z,75.98
2023-02-05T01:26:16.046Z,76.05
2023-02-05T01:28:48.437Z,75.85
2023-02-05T01:31:19.845Z,76.00
2023-02-05T01:33:49.650Z,75.63
2023-02-05T01:36:19.269Z,76.04
2023-02-05T01:38:49.402Z,75.85
2023-02-05T01:41:19.216Z,75.59
2023-02-05T01:44:11.863Z,75.98
2023-02-05T01:46:42.515Z,75.97
2023-02-05T01:49:15.538Z,76.31
2023-02-05T01:51:45.539Z,75.92
2023-02-05T01:54:15.637Z,76.03
2023-02-05T01:56:49.961Z,75.84
2023-02-05T01:59:23.866Z,75.68
2023-02-05T02:01:54.911Z,76.05
2023-02-05T02:04:37.473Z,76.04
2023-02-05T02:07:09.786Z,76.30
2023-02-05T02:09:40.861Z,75.79
2023-02-05T02:12:12.681Z,75.58
2023-02-05T02:14:49.043Z,75.92
2023-02-05T02:17:22.236Z,75.93
2023-02-05T02:19:59.396Z,75.59
2023-02-05T02:22:55.257Z,75.89
2023-02-05T02:25:47.382Z,75.61
2023-02-05T02:28:21.099Z,75.93
2023-02-05T02:30:58.152Z,75.82
2023-02-05T02:33:31.532Z,75.60
2023-02-05T02:36:06.709Z,75.79
2023-02-05T02:38:40.558Z,75.86
2023-02-05T02:41:17.109Z,76.26
2023-02-05T02:43:51.316Z,75.90
2023-02-05T02:46:28.035Z,75.68
2023-02-05T02:49:01.600Z,75.79
2023-02-05T02:51:33.980Z,76.10
2023-02-05T02:54:09.342Z,76.13
2023-02-05T02:56:41.782Z,76.07
2023-02-05T02:59:15.377Z,76.29
2023-02-05T03:01:53.680Z,75.84
2023-02-05T03:04:27.217Z,76.04
2023-02-05T03:07:02.214Z,75.87
2023-02-05T03:09:38.274Z,76.10
2023-02-05T03:12:08.314Z,76.01
2023-02-05T03:14:39.508Z,76.08
2023-02-05T03:17:08.777Z,75.81
2023-02-05T03:19:38.707Z,76.13
2023-02-05T03:22:08.974Z,76.14
2023-02-05T03:24:39.845Z,76.34
2023-02-05T03:27:09.428Z,76.10
2023-02-05T03:29:44.546Z,76.21
2023-02-05T03:32:31.293Z,76.03
2023-02-05T03:35:13.837Z,76.05
2023-02-05T03:37:50.954Z,76.28
2023-02-05T03:40:32.141Z,76.15
2023-02-05T03:43:12.411Z,76.14
2023-02-05T03:45:54.795Z,75.94
2023-02-05T03:48:37.795Z,76.09
2023-02-05T03:51:23.897Z,75.98
2023-02-05T03:54:04.376Z,75.97
2023-02-05T03:56:41.261Z,76.25
2023-02-05T03:59:11.426Z,76.23
2023-02-05T04:01:41.070Z,76.00
2023-02-05T04:04:10.402Z,76.03
2023-02-05T04:06:40.993Z,76.34
2023-02-05T04:09:11.649Z,76.31
2023-02-05T04:11:41.095Z,76.08
2023-02-05T04:14:10.678Z,76.07
2023-02-05T04:16:40.447Z,76.02
2023-02-05T04:19:09.774Z,76.08
2023-02-05T04:21:39.469Z,76.12
2023-02-05T04:24:09.693Z,75.89
2023-02-05T04:26:39.212Z,76.00
2023-02-05T04:29:08.600Z,76.24
2023-02-05T04:31:42.359Z,75.92
2023-02-05T04:34:12.054Z,76.09
2023-02-05T04:36:41.827Z,75.75
2023-02-05T04:39:10.978Z,76.11
2023-02-05T04:41:41.522Z,76.25
2023-02-05T04:44:11.090Z,75.97
2023-02-05T04:46:46.146Z,76.00
2023-02-05T04:49:17.681Z,75.93
2023-02-05T04:51:47.462Z,76.15
2023-02-05T04:54:16.807Z,76.38
2023-02-05T04:56:48.361Z,75.97
2023-02-05T04:59:17.207Z,76.14
2023-02-05T05:01:47.605Z,76.10
2023-02-05T05:04:16.657Z,75.82
2023-02-05T05:06:45.680Z,76.33
2023-02-05T05:09:17.057Z,75.92
2023-02-05T05:11:46.288Z,76.15
2023-02-05T05:14:15.402Z,76.12
2023-02-05T05:16:44.330Z,75.79
2023-02-05T05:19:13.220Z,76.03
2023-02-05T05:21:42.336Z,76.45
2023-02-05T05:24:16.501Z,76.37
2023-02-05T05:26:46.226Z,76.03
2023-02-05T05:29:15.845Z,76.13
2023-02-05T05:31:44.813Z,76.21
2023-02-05T05:34:14.004Z,76.25
2023-02-05T05:36:43.649Z,76.42
2023-02-05T05:39:32.070Z,75.86
2023-02-05T05:42:20.157Z,76.04
2023-02-05T05:44:51.662Z,76.14
2023-02-05T05:47:20.716Z,76.37
2023-02-05T05:49:49.571Z,76.27
2023-02-05T05:52:19.040Z,75.84
2023-02-05T05:54:47.937Z,76.11
2023-02-05T05:57:16.995Z,76.09
2023-02-05T05:59:49.051Z,76.27
2023-02-05T06:02:18.232Z,76.20
2023-02-05T06:04:47.237Z,76.05
2023-02-05T06:07:16.998Z,76.34
2023-02-05T06:09:47.228Z,76.20
2023-02-05T06:12:22.162Z,75.87
2023-02-05T06:14:51.313Z,75.99
2023-02-05T06:17:22.940Z,75.86
2023-02-05T06:19:52.258Z,76.14
2023-02-05T06:22:21.294Z,76.23
2023-02-05T06:24:53.063Z,76.23
2023-02-05T06:27:22.191Z,76.26
2023-02-05T06:29:51.208Z,76.37
2023-02-05T06:32:21.093Z,76.23
2023-02-05T06:34:49.968Z,76.33
2023-02-05T06:37:19.445Z,76.02
2023-02-05T06:39:48.477Z,76.48
2023-02-05T06:42:17.373Z,76.36
2023-02-05T06:44:46.579Z,76.21
2023-02-05T06:47:15.837Z,76.23
2023-02-05T06:49:46.370Z,75.89
2023-02-05T06:52:16.279Z,76.31
2023-02-05T06:54:45.259Z,76.34
2023-02-05T06:57:14.395Z,76.07
2023-02-05T06:59:46.169Z,76.36
2023-02-05T07:02:15.566Z,76.29
2023-02-05T07:04:44.732Z,76.23
2023-02-05T07:07:16.288Z,76.14
2023-02-05T07:09:46.237Z,76.23
2023-02-05T07:12:15.937Z,76.05
2023-02-05T07:14:45.782Z,76.43
2023-02-05T07:17:15.380Z,75.91
2023-02-05T07:19:52.777Z,76.42
2023-02-05T07:22:21.974Z,76.21
2023-02-05T07:24:54.420Z,76.03
2023-02-05T07:27:23.558Z,76.35
2023-02-05T07:29:53.943Z,76.28
2023-02-05T07:32:24.075Z,75.89
2023-02-05T07:34:53.159Z,76.18
2023-02-05T07:37:23.005Z,76.37
2023-02-05T07:39:52.090Z,76.38
2023-02-05T07:42:22.270Z,76.16
2023-02-05T07:44:55.003Z,76.32
2023-02-05T07:47:23.988Z,76.27
2023-02-05T07:49:53.577Z,75.98
2023-02-05T07:52:26.834Z,76.02
2023-02-05T07:54:55.744Z,76.05
2023-02-05T07:57:27.402Z,76.15
2023-02-05T07:59:56.854Z,75.74
2023-02-05T08:02:26.550Z,75.85
2023-02-05T08:04:55.667Z,75.51
2023-02-05T08:07:24.851Z,75.46
2023-02-05T08:09:55.405Z,75.67
2023-02-05T08:12:24.572Z,75.42
2023-02-05T08:14:56.702Z,75.53
2023-02-05T08:17:25.998Z,75.35
2023-02-05T08:19:55.436Z,75.50
2023-02-05T08:22:24.603Z,75.57
2023-02-05T08:24:54.036Z,75.60
2023-02-05T08:27:23.100Z,75.39
2023-02-05T08:29:52.563Z,75.40
2023-02-05T08:32:22.127Z,75.63
2023-02-05T08:34:51.725Z,75.22
2023-02-05T08:37:20.968Z,75.65
2023-02-05T08:39:50.381Z,75.32
2023-02-05T08:42:19.990Z,75.67
2023-02-05T08:44:49.581Z,75.68
2023-02-05T08:47:20.689Z,75.41
2023-02-05T08:49:50.036Z,75.06
2023-02-05T08:52:22.031Z,75.46
2023-02-05T08:54:51.364Z,75.62
2023-02-05T08:57:20.933Z,75.27
2023-02-05T08:59:50.843Z,75.37
2023-02-05T09:02:20.198Z,75.50
2023-02-05T09:04:51.459Z,75.41
2023-02-05T09:07:25.917Z,75.54
2023-02-05T09:09:55.089Z,75.43
2023-02-05T09:12:24.193Z,75.65
2023-02-05T09:14:53.448Z,75.28
2023-02-05T09:17:22.479Z,75.68
2023-02-05T09:19:51.738Z,75.24
2023-02-05T09:22:21.275Z,75.42
2023-02-05T09:24:50.671Z,75.15
2023-02-05T09:27:20.142Z,75.38
2023-02-05T09:29:49.584Z,74.79
2023-02-05T09:32:21.011Z,75.23
2023-02-05T09:34:50.627Z,74.85
2023-02-05T09:37:20.192Z,75.03
2023-02-05T09:40:19.649Z,75.25
2023-02-05T09:42:50.545Z,74.97
2023-02-05T09:45:38.299Z,74.67
2023-02-05T09:48:32.120Z,74.85
2023-02-05T09:51:02.888Z,75.02
2023-02-05T09:53:37.492Z,74.71
2023-02-05T09:56:10.408Z,74.51
2023-02-05T09:58:44.089Z,74.64
2023-02-05T10:01:20.268Z,74.40
2023-02-05T10:03:53.778Z,74.83
2023-02-05T10:06:58.328Z,74.66
2023-02-05T10:09:50.383Z,74.35
2023-02-05T10:12:36.885Z,74.58
2023-02-05T10:15:25.865Z,74.22
2023-02-05T10:18:10.515Z,74.17
2023-02-05T10:20:52.716Z,74.51
2023-02-05T10:23:39.736Z,74.11
2023-02-05T10:26:12.204Z,73.88
2023-02-05T10:29:04.218Z,73.78
2023-02-05T10:31:43.086Z,73.77
2023-02-05T10:34:19.900Z,73.70
2023-02-05T10:36:53.021Z,73.85
2023-02-05T10:39:25.653Z,73.55
2023-02-05T10:41:59.531Z,74.07
2023-02-05T10:44:31.671Z,73.85
2023-02-05T10:47:06.522Z,73.49
2023-02-05T10:49:48.099Z,73.90
2023-02-05T10:52:18.321Z,73.75
2023-02-05T10:54:47.576Z,73.65
2023-02-05T10:57:19.865Z,74.06
2023-02-05T10:59:56.833Z,74.11
2023-02-05T11:02:31.480Z,73.73
2023-02-05T11:05:06.321Z,73.54
2023-02-05T11:07:39.988Z,74.00
2023-02-05T11:10:18.495Z,73.70
2023-02-05T11:12:51.203Z,73.57
2023-02-05T11:15:23.508Z,72.74
2023-02-05T11:17:54.949Z,72.80
2023-02-05T11:20:32.363Z,72.93
2023-02-05T11:23:15.435Z,72.81
2023-02-05T11:25:52.921Z,72.82
2023-02-05T11:28:26.575Z,72.78
2023-02-05T11:30:56.784Z,73.02
2023-02-05T11:33:31.828Z,73.02
2023-02-05T11:36:04.294Z,73.14
2023-02-05T11:38:44.027Z,72.74
2023-02-05T11:41:15.472Z,72.87
2023-02-05T11:43:51.010Z,73.32
2023-02-05T11:46:23.729Z,72.87
2023-02-05T11:48:58.311Z,73.25
2023-02-05T11:51:44.005Z,72.66
2023-02-05T11:54:29.175Z,72.59
2023-02-05T11:57:22.947Z,72.92
2023-02-05T11:59:56.802Z,73.05
2023-02-05T12:02:37.905Z,72.98
2023-02-05T12:05:18.011Z,73.06
2023-02-05T12:07:52.518Z,72.98
2023-02-05T12:10:32.071Z,73.28
2023-02-05T12:13:10.512Z,72.67
2023-02-05T12:15:45.133Z,72.53
2023-02-05T12:18:25.814Z,73.14
2023-02-05T12:21:09.293Z,72.77
2023-02-05T12:24:16.903Z,72.78
2023-02-05T12:26:48.742Z,72.60
2023-02-05T12:29:38.730Z,73.04
2023-02-05T12:32:22.367Z,72.57
2023-02-05T12:35:11.280Z,72.63
2023-02-05T12:37:48.108Z,72.17
2023-02-05T12:40:39.950Z,72.72
2023-02-05T12:43:22.860Z,72.11
2023-02-05T12:45:59.964Z,72.14
2023-02-05T12:48:44.962Z,72.66
2023-02-05T12:51:31.476Z,71.81
2023-02-05T12:54:16.238Z,72.55
2023-02-05T12:56:55.039Z,72.20
2023-02-05T12:59:35.333Z,71.87
2023-02-05T13:02:16.940Z,72.22
2023-02-05T13:04:51.832Z,72.09
2023-02-05T13:07:36.955Z,71.86
2023-02-05T13:10:13.999Z,72.03
2023-02-05T13:12:51.473Z,72.07
2023-02-05T13:15:23.284Z,72.30
2023-02-05T13:18:00.579Z,72.41
2023-02-05T13:20:54.811Z,72.31
2023-02-05T13:23:43.008Z,72.06
2023-02-05T13:26:33.636Z,72.16
2023-02-05T13:29:08.166Z,71.75
2023-02-05T13:31:42.004Z,71.42
2023-02-05T13:34:15.171Z,71.77
2023-02-05T13:37:14.700Z,72.01
2023-02-05T13:40:21.792Z,71.38
2023-02-05T13:43:12.763Z,71.77
2023-02-05T13:46:05.189Z,71.92
2023-02-05T13:49:06.643Z,71.79
2023-02-05T13:52:03.071Z,72.20
2023-02-05T13:55:01.839Z,71.71
2023-02-05T13:58:11.986Z,71.38
2023-02-05T14:00:44.253Z,71.51
2023-02-05T14:03:34.557Z,71.74
2023-02-05T14:06:23.668Z,71.58
2023-02-05T14:09:00.878Z,71.59
2023-02-05T14:11:47.412Z,71.47
2023-02-05T14:14:30.460Z,71.20
2023-02-05T14:17:01.329Z,71.44
2023-02-05T14:19:56.682Z,71.56
2023-02-05T14:22:38.745Z,71.31
2023-02-05T14:25:42.031Z,71.65
2023-02-05T14:28:35.150Z,71.30
2023-02-05T14:31:06.714Z,71.51
2023-02-05T14:33:41.179Z,71.19
2023-02-05T14:36:35.088Z,71.39
2023-02-05T14:39:18.315Z,71.35
2023-02-05T14:41:51.465Z,71.50
2023-02-05T14:44:29.165Z,71.22
2023-02-05T14:47:08.286Z,71.56
2023-02-05T14:49:43.312Z,71.30
2023-02-05T14:52:27.278Z,71.23
2023-02-05T14:55:01.469Z,71.68
2023-02-05T14:57:45.728Z,71.13
2023-02-05T15:00:27.880Z,71.30
2023-02-05T15:03:19.252Z,71.50
2023-02-05T15:05:56.130Z,71.37
2023-02-05T15:08:37.454Z,71.80
2023-02-05T15:11:13.051Z,71.54
2023-02-05T15:13:42.991Z,71.37
2023-02-05T15:16:21.824Z,71.44
2023-02-05T15:18:55.391Z,71.25
2023-02-05T15:21:33.322Z,71.23
2023-02-05T15:24:06.213Z,71.52
2023-02-05T15:26:42.044Z,71.36
2023-02-05T15:29:18.961Z,71.23
2023-02-05T15:31:51.084Z,71.36
2023-02-05T15:34:32.618Z,71.10
2023-02-05T15:37:06.561Z,71.42
2023-02-05T15:39:44.611Z,71.53
2023-02-05T15:42:18.393Z,71.26
2023-02-05T15:44:50.554Z,70.97
2023-02-05T15:47:23.196Z,71.26
2023-02-05T15:49:56.971Z,71.36
2023-02-05T15:52:28.810Z,71.39
2023-02-05T15:55:00.134Z,71.20
2023-02-05T15:57:39.077Z,71.30
2023-02-05T16:00:19.191Z,71.49
2023-02-05T16:02:56.394Z,71.43
2023-02-05T16:05:32.655Z,71.54
2023-02-05T16:08:02.755Z,71.44
2023-02-05T16:10:35.151Z,71.43
2023-02-05T16:13:16.759Z,71.60
2023-02-05T16:15:54.177Z,71.38
2023-02-05T16:18:37.431Z,71.58
2023-02-05T16:21:16.270Z,71.44
2023-02-05T16:23:49.554Z,71.32
2023-02-05T16:26:21.901Z,71.43
2023-02-05T16:28:55.721Z,71.44
2023-02-05T16:31:34.365Z,71.57
2023-02-05T16:34:06.715Z,71.47
2023-02-05T16:36:39.088Z,71.58
2023-02-05T16:39:19.991Z,71.46
2023-02-05T16:42:02.026Z,71.42
2023-02-05T16:44:34.579Z,71.34
2023-02-05T16:47:21.325Z,71.33
2023-02-05T16:49:51.496Z,71.46
2023-02-05T16:52:31.682Z,71.37
2023-02-05T16:55:07.443Z,71.47
2023-02-05T16:57:39.228Z,71.57
2023-02-05T17:00:20.674Z,71.43
2023-02-05T17:02:54.892Z,71.57
2023-02-05T17:05:27.140Z,71.55
2023-02-05T17:07:58.873Z,71.52
2023-02-05T17:10:29.068Z,71.63
2023-02-05T17:13:04.526Z,71.50
2023-02-05T17:15:39.574Z,71.55
2023-02-05T17:18:24.506Z,71.35
2023-02-05T17:21:24.043Z,71.50
2023-02-05T17:23:56.385Z,71.43
2023-02-05T17:26:30.976Z,71.62
2023-02-05T17:29:03.289Z,71.58
2023-02-05T17:31:36.674Z,71.48
2023-02-05T17:34:06.889Z,71.41
2023-02-05T17:36:35.887Z,71.57
2023-02-05T17:39:05.072Z,71.47
2023-02-05T17:41:56.195Z,71.51
2023-02-05T17:44:25.242Z,71.55
2023-02-05T17:46:54.522Z,71.41
2023-02-05T17:49:24.013Z,71.53
2023-02-05T17:51:54.236Z,71.63
2023-02-05T17:54:25.476Z,71.79
2023-02-05T17:56:57.550Z,71.52
2023-02-05T17:59:27.987Z,71.64
2023-02-05T18:01:57.844Z,71.53
2023-02-05T18:04:27.062Z,71.77
2023-02-05T18:06:57.520Z,71.78
2023-02-05T18:09:26.877Z,71.98
2023-02-05T18:11:56.250Z,71.89
2023-02-05T18:14:25.511Z,71.75
2023-02-05T18:16:54.842Z,71.89
2023-02-05T18:19:24.063Z,71.84
2023-02-05T18:21:53.330Z,71.97
2023-02-05T18:24:22.345Z,71.87
2023-02-05T18:26:52.245Z,71.83
2023-02-05T18:29:21.564Z,72.00
2023-02-05T18:31:51.027Z,71.92
2023-02-05T18:34:20.235Z,72.01
2023-02-05T18:36:49.452Z,72.27
2023-02-05T18:39:18.699Z,71.93
2023-02-05T18:41:47.747Z,71.85
2023-02-05T18:44:17.624Z,71.97
2023-02-05T18:46:47.340Z,71.98
2023-02-05T18:49:22.710Z,71.68
2023-02-05T18:51:53.886Z,71.83
2023-02-05T18:54:23.508Z,71.77
2023-02-05T18:56:59.527Z,72.06
2023-02-05T18:59:35.940Z,71.95
2023-02-05T19:02:09.802Z,71.74
2023-02-05T19:04:43.418Z,71.70
2023-02-05T19:07:17.064Z,71.42
2023-02-05T19:09:46.808Z,71.51
2023-02-05T19:12:16.842Z,71.67
2023-02-05T19:14:49.550Z,71.76
2023-02-05T19:17:21.472Z,71.82
2023-02-05T19:19:58.012Z,71.60
2023-02-05T19:22:33.537Z,71.35
2023-02-05T19:25:14.370Z,71.73
2023-02-05T19:27:43.878Z,71.64
2023-02-05T19:30:15.413Z,71.94
2023-02-05T19:32:54.531Z,71.62
2023-02-05T19:35:24.978Z,71.58
2023-02-05T19:37:58.150Z,71.68
2023-02-05T19:40:32.743Z,71.68
2023-02-05T19:43:23.694Z,71.55
2023-02-05T19:46:04.264Z,71.50
2023-02-05T19:48:37.584Z,71.63
2023-02-05T19:51:10.669Z,71.62
2023-02-05T19:53:43.504Z,71.86
2023-02-05T19:56:28.331Z,72.01
2023-02-05T19:59:04.652Z,71.46
2023-02-05T20:01:40.078Z,72.03
2023-02-05T20:04:17.978Z,72.03
2023-02-05T20:06:53.143Z,72.19
2023-02-05T20:09:35.854Z,72.13
2023-02-05T20:12:16.345Z,71.95
2023-02-05T20:14:48.438Z,72.11
2023-02-05T20:17:20.861Z,72.29
2023-02-05T20:19:55.174Z,71.96
2023-02-05T20:22:29.852Z,71.64
2023-02-05T20:25:00.099Z,71.54
2023-02-05T20:27:35.710Z,71.49
2023-02-05T20:30:27.348Z,71.67
2023-02-05T20:33:02.439Z,72.42
2023-02-05T20:35:39.181Z,72.12
2023-02-05T20:38:11.062Z,72.16
2023-02-05T20:40:44.164Z,72.35
2023-02-05T20:43:14.897Z,72.14
2023-02-05T20:45:46.811Z,72.33
2023-02-05T20:48:19.312Z,72.17
2023-02-05T20:50:51.830Z,72.40
2023-02-05T20:53:22.702Z,71.69
2023-02-05T20:55:59.580Z,72.08
2023-02-05T20:58:28.524Z,72.27
2023-02-05T21:01:06.069Z,71.82
2023-02-05T21:03:35.811Z,71.74
2023-02-05T21:06:05.746Z,72.05
2023-02-05T21:08:37.490Z,72.27
2023-02-05T21:11:07.350Z,72.12
2023-02-05T21:13:36.278Z,72.35
2023-02-05T21:16:06.925Z,71.83
2023-02-05T21:18:37.711Z,71.88
2023-02-05T21:21:07.977Z,71.73
2023-02-05T21:23:37.164Z,72.43
2023-02-05T21:26:07.244Z,72.41
2023-02-05T21:28:36.019Z,72.26
2023-02-05T21:31:07.523Z,72.31
2023-02-05T21:33:37.155Z,71.89
2023-02-05T21:36:09.420Z,72.15
2023-02-05T21:38:40.109Z,71.97
2023-02-05T21:41:10.540Z,72.78
2023-02-05T21:43:44.864Z,72.66
2023-02-05T21:46:19.320Z,72.66
2023-02-05T21:48:50.283Z,72.40
2023-02-05T21:51:21.726Z,71.91
2023-02-05T21:53:56.638Z,72.35
2023-02-05T21:56:28.219Z,71.77
2023-02-05T21:58:57.947Z,71.64
2023-02-05T22:01:31.394Z,72.22
2023-02-05T22:04:02.195Z,71.93
2023-02-05T22:06:33.457Z,71.81
2023-02-05T22:09:04.346Z,72.43
2023-02-05T22:11:35.134Z,72.63
2023-02-05T22:14:04.095Z,72.04
2023-02-05T22:16:35.505Z,72.63
2023-02-05T22:19:05.405Z,71.99
2023-02-05T22:21:36.194Z,72.77
2023-02-05T22:24:06.954Z,72.04
2023-02-05T22:26:38.769Z,72.84
2023-02-05T22:29:10.771Z,72.33
2023-02-05T22:31:44.388Z,72.79
2023-02-05T22:34:14.851Z,72.32
2023-02-05T22:36:45.322Z,72.42
2023-02-05T22:39:15.401Z,72.95
2023-02-05T22:41:45.753Z,72.93
2023-02-05T22:44:17.034Z,72.87
2023-02-05T22:46:47.394Z,72.89
2023-02-05T22:49:18.680Z,72.39
2023-02-05T22:51:52.241Z,72.74
2023-02-05T22:54:21.286Z,73.10
2023-02-05T22:56:52.629Z,73.11
2023-02-05T22:59:21.879Z,72.53
2023-02-05T23:01:50.918Z,73.01
2023-02-05T23:04:19.986Z,72.77
2023-02-05T23:06:49.179Z,73.27
2023-02-05T23:09:19.853Z,72.35
2023-02-05T23:11:49.603Z,72.92
2023-02-05T23:14:19.329Z,72.91
2023-02-05T23:16:49.583Z,73.08
2023-02-05T23:19:21.940Z,73.15
2023-02-05T23:21:53.713Z,73.30
2023-02-05T23:24:23.229Z,72.85
2023-02-05T23:26:52.936Z,73.07
2023-02-05T23:29:22.527Z,73.15
2023-02-05T23:31:51.830Z,72.98
2023-02-05T23:34:23.504Z,73.16
2023-02-05T23:36:52.724Z,73.11
2023-02-05T23:39:25.029Z,72.66
2023-02-05T23:41:54.121Z,73.38
2023-02-05T23:44:23.853Z,72.86
2023-02-05T23:46:53.546Z,73.42
2023-02-05T23:49:23.099Z,73.26
2023-02-05T23:51:54.697Z,72.51
2023-02-05T23:54:24.609Z,72.62
2023-02-05T23:56:54.870Z,72.70
2023-02-05T23:59:24.259Z,72.65
